Tiempo atmosférico en la estación meteorológica de Águilas, Murcia (26 m.)

Fecha
DESCASC
Temp. máxima en grados centígrados (hora)
DESCASC
Temp. mínima en grados centígrados (hora)
DESCASC
Temp. media en grados centígrados
DESCASC
Racha de viento máxima en m/sg (hora)
DESCASC
Velocidad máxima media en intervalos de 10 minutos(hora)
DESCASC
Precipitaciones diarias en mm
DESCASC
Precipitaciones de 00:00 a 06:00 en mm
DESCASC
Precipitaciones de 06:00 a 12:00 en mm
DESCASC
Precipitaciones de 12:00 a 18:00 en mm
DESCASC
Precipitaciones de 18:00 a 24:00 en mm
DESCASC
17-08-2017 29.8 (12:30) 24.6 (07:20) 27.2 8.33 (12:10) 5.28 (12:10) 0 0 0 0 0
16-08-2017 29.7 (16:20) 25.5 (03:50) 27.6 5.83 (13:30) 3.06 (13:30) 0 0 0 0 0
15-08-2017 31.8 (11:30) 23.8 (00:00) 27.8 12.22 (13:40) 8.06 (13:40) 0 0 0 0 0
14-08-2017 30.2 (15:50) 22.2 (07:10) 26.2 11.67 (17:40) 7.22 (18:00) 0 0 0 0 0
13-08-2017 29.7 (13:00) 21.8 (00:00) 25.8 11.39 (16:20) 6.94 (14:30) 0 0 0 0 0
12-08-2017 28.7 (12:30) 21.3 (00:00) 25 11.67 (15:10) 7.22 (15:50) 0 0 0 0 0
11-08-2017 28.9 (11:40) 22.6 (00:00) 25.8 11.11 (16:40) 6.11 (18:00) 0 0 0 0 0
10-08-2017 28.3 (14:00) 24.4 (00:00) 26.3 13.89 (04:20) 7.78 (16:30) 0 0 0 0 0
09-08-2017 31.4 (12:10) 26.6 (00:00) 29 8.33 (00:10) 5 (00:10) 0 0 0 0 0
08-08-2017 32.5 (14:20) 25.5 (00:00) 29 9.17 (22:40) 5.83 (22:40) 0 0 0 0 0
07-08-2017 31 (16:10) 27.2 (00:00) 29.1 8.89 (22:20) 5 (22:20) 0 0 0 0 0
06-08-2017 31.8 (13:50) 25.7 (00:00) 28.8 9.17 (15:30) 5.28 (13:00) 0 0 0 0 0
05-08-2017 31.9 (17:20) 24.8 (00:00) 28.3 6.39 (13:30) 3.61 (13:50) 0 0 0 0 0
04-08-2017 32.9 (13:10) 25.1 (00:00) 29 6.11 (12:00) 3.89 (12:30) 0 0 0 0 0
03-08-2017 31.6 (17:20) 26.1 (00:00) 28.9 6.94 (14:30) 3.61 (12:50) 0 0 0 0 0
02-08-2017 32.1 (13:20) 26.7 (00:00) 29.4 8.33 (01:40) 4.72 (14:50) 0 0 0 0 0
01-08-2017 31 (11:40) 26.3 (00:00) 28.6 8.89 (19:20) 5.83 (19:20) 0 0 0 0 0
31-07-2017 31 (15:20) 23.9 (00:00) 27.4 7.5 (17:20) 4.72 (15:10) 0 0 0 0 0
30-07-2017 34 (17:30) 24.4 (00:00) 29.2 6.11 (13:00) 3.33 (14:30) 0 0 0 0 0
29-07-2017 30.9 (19:40) 23.4 (00:00) 27.1 6.67 (13:20) 4.17 (12:30) 0 0 0 0 0
28-07-2017 31.2 (12:50) 23.4 (00:00) 27.3 6.39 (14:40) 3.33 (14:30) 0 0 0 0 0
27-07-2017 31.2 (13:10) 23.6 (00:00) 27.4 5.56 (14:50) 3.33 (14:00) 0 0 0 0 0
26-07-2017 29.4 (15:10) 24.9 (00:00) 27.1 7.22 (16:30) 4.17 (16:30) 0 0 0 0 0
25-07-2017 30.3 (10:50) 23 (00:00) 26.6 10 (14:30) 6.11 (13:40) 0 0 0 0 0
24-07-2017 29.3 (15:40) 21.9 (00:00) 25.6 6.67 (12:40) 3.89 (13:30) 0 0 0 0 0
23-07-2017 30 (15:10) 24.5 (00:00) 27.3 9.72 (12:30) 6.11 (13:00) 0 0 0 0 0
22-07-2017 28.7 (12:00) 22.4 (00:00) 25.6 7.5 (16:10) 4.17 (12:20) 0 0 0 0 0

Gráficas

Temp. máximas Temp. mínimas Temp. medias Precipitaciones Rachas de viento máximas Velocidades máximas media en intervalos de 10 minutos

Datos horarios

Fecha y hora oficial Temperatura (ºC) Velocidad del viento (km/h) Dirección del viento Racha (km/h) Dirección de racha Precipitación (mm) Presión (hPa) Tendencia (hPa) Humedad (%)
2017-08-20 23:00:00 25.9 8 Este 17 Este 0 1016.1 1.1 61
2017-08-20 22:00:00 26.2 11 Este 23 Este 0 1015.6 1.2 67
2017-08-20 21:00:00 26.7 13 Este 31 Este 0 1015 0.2 64
2017-08-20 20:00:00 27.1 21 Este 36 Sudeste 0 1015 0 63
2017-08-20 19:00:00 28.5 18 Este 37 Sudeste 0 1014.4 -1 58
2017-08-20 18:00:00 29.1 22 Este 37 Este 0 1014.8 -1.2 56
2017-08-20 17:00:00 29.8 20 Sudeste 39 Este 0 1015 -1.2 56
2017-08-20 16:00:00 29.9 21 Sudeste 39 Sudeste 0 1015.4 -1.3 54
2017-08-20 15:00:00 30.6 19 Sudeste 37 Este 0 1016 -0.8 52
2017-08-20 14:00:00 29 25 Sudeste 40 Sudeste 0 1016.2 -0.6 59
2017-08-20 13:00:00 29.4 21 Sudeste 37 Sudeste 0 1016.7 0.3 60
2017-08-20 12:00:00 29.8 20 Sudeste 36 Sudeste 0 1016.8 0.8 55
2017-08-20 11:00:00 29.2 14 Este 29 Este 0 1016.8 1.5 52
2017-08-20 10:00:00 28.6 13 Este 27 Nordeste 0 1016.4 1.7 55
2017-08-20 09:00:00 26 3 Oeste 7 Norte 0 1016 1.7 62
2017-08-20 08:00:00 23.6 3 Nordeste 5 Nordeste 0 1015.3 1 69
2017-08-20 07:00:00 23.8 2 Norte 8 Norte 0 1014.7 0.2 68
2017-08-20 06:00:00 23.8 4 Norte 7 Norte 0 1014.3 -0.3 68
2017-08-20 05:00:00 24 4 Nordeste 6 Nordeste 0 1014.3 -0.6 68
2017-08-20 04:00:00 24.1 2 Norte 5 Norte 0 1014.5 -0.6 68
2017-08-20 03:00:00 24.6 2 Noroeste 5 Nordeste 0 1014.6 -0.6 66
2017-08-20 02:00:00 25.2 2 Nordeste 6 Este 0 1014.9 0 66
2017-08-20 01:00:00 26 4 Este 9 Este 0 1015.1 1 64
2017-08-20 00:00:00 26.2 5 Este 11 Este 0 1015.2 1.8 64
2017-08-19 23:00:00 26.9 7 Este 18 Este 0 1014.9 3 63
2017-08-19 22:00:00 26.8 12 Este 27 Este 0 1014.1 1.8 73
2017-08-19 21:00:00 27.2 14 Este 30 Este 0 1013.4 1.1 70
2017-08-19 20:00:00 28.1 17 Este 32 Este 0 1011.9 -0.6 66
2017-08-19 19:00:00 29.1 20 Sudeste 34 Sudeste 0 1012.3 -0.5 62
2017-08-19 18:00:00 29.8 17 Sudeste 33 Sudeste 0 1012.3 -0.8 58
2017-08-19 17:00:00 30 18 Sudeste 35 Sudeste 0 1012.5 -0.7 51
2017-08-19 16:00:00 29.8 19 Sudeste 35 Sudeste 0 1012.8 -0.8 59
2017-08-19 15:00:00 29.4 22 Sudeste 35 Sudeste 0 1013.1 -0.8 59
2017-08-19 14:00:00 28.7 20 Sudeste 34 Sudeste 0 1013.2 0.2 62
2017-08-19 13:00:00 29 22 Sudeste 36 Sudeste 0 1013.6 0 60
2017-08-19 12:00:00 28.6 19 Sudeste 28 Sudeste 0 1013.9 0.5 59
2017-08-19 11:00:00 28.7 15 Sudeste 24 Sudeste 0 1013 0.4 55
2017-08-19 10:00:00 27 12 Este 21 Este 0 1013.6 2.2 65
2017-08-19 09:00:00 25.8 10 Este 19 Este 0 1013.4 2.4 74
2017-08-19 08:00:00 24.9 5 Nordeste 9 Nordeste 0 1012.6 1.7 76
2017-08-19 07:00:00 24.4 4 Norte 8 Noroeste 0 1011.4 0.5 76
2017-08-19 06:00:00 25.1 6 Noroeste 10 Oeste 0 1011 -0.1 74
2017-08-19 05:00:00 24.9 4 Noroeste 6 Noroeste 0 1010.9 -0.6 75
2017-08-19 04:00:00 24.9 2 Norte 8 Nordeste 0 1010.9 -1.1 76
2017-08-19 03:00:00 25.3 2 Norte 6 Norte 0 1011.1 -1 75
2017-08-19 02:00:00 26 3 Sudoeste 12 Oeste 0 1011.5 -0.3 74
2017-08-19 01:00:00 26.3 6 Oeste 10 Oeste 0 1012 -0.1 74
2017-08-19 00:00:00 26.3 2 Sudoeste 6 Sudoeste 0 1012.1 1.5 75
2017-08-18 23:00:00 26.2 3 Oeste 7 Sudoeste 0 1011.8 1.4 74
2017-08-18 22:00:00 26.7 3 Sur 6 Sur 0 1012.1 1.5 72
2017-08-18 21:00:00 27 3 Sudoeste 9 Sudoeste 0 1010.6 -0.2 70
2017-08-18 20:00:00 27.8 4 Sur 13 Sur 0 1010.4 -0.9 66
2017-08-18 19:00:00 28.6 6 Sur 18 Sur 0 1010.6 -1.4 62
2017-08-18 18:00:00 28.6 8 Sur 20 Sur 0 1010.8 -1.6 63
2017-08-18 17:00:00 28.5 11 Sur 25 Sudeste 0 1011.3 -1.5 65
2017-08-18 16:00:00 28.8 9 Sur 22 Sur 0 1012 -1.3 61
2017-08-18 15:00:00 28.7 11 Sur 22 Sudeste 0 1012.4 -1.4 58
2017-08-18 14:00:00 29 10 Sudeste 19 Sur 0 1012.8 -1.3 60
2017-08-18 13:00:00 28.8 9 Sur 20 Sur 0 1013.3 -0.6 58
2017-08-18 12:00:00 28.3 9 Sur 18 Sur 0 1013.8 -0.1 61
2017-08-18 11:00:00 27.6 8 Sur 15 Sur 0 1014.1 0.6 64
2017-08-18 10:00:00 27.4 6 Sudoeste 13 Sudoeste 0 1013.9 0.8 68
2017-08-18 09:00:00 25.8 2 Noroeste 7 Nordeste 0 1013.9 0.8 73
2017-08-18 08:00:00 23.5 4 Norte 8 Noroeste 0 1013.5 0.6 77
2017-08-18 07:00:00 23.9 2 Norte 8 Norte 0 1013.1 -0.2 79
2017-08-18 06:00:00 23.7 5 Norte 7 Norte 0 1013.1 -0.6 76
2017-08-18 05:00:00 24.3 0 Calma 8 Nordeste 0 1012.9 -1.5 75
2017-08-18 04:00:00 24.2 5 Nordeste 8 Norte 0 1013.3 -1.1 74
2017-08-18 03:00:00 24.5 3 Oeste 6 Nordeste 0 1013.7 -0.7 76
2017-08-18 02:00:00 25.3 3 Norte 8 Nordeste 0 1014.4 0 76
2017-08-18 01:00:00 25.6 4 Este 6 Este 0 1014.4 0.5 77
2017-08-18 00:00:00 25.9 4 Este 7 Sudeste 0 1014.4 0.7 74
2017-08-17 23:00:00 26.3 5 Este 7 Sudeste 0 1014.4 1.5 72
2017-08-17 22:00:00 26.6 3 Sudeste 10 Sudeste 0 1013.9 0.5 70
2017-08-17 21:00:00 27.1 6 Sudeste 16 Sudeste 0 1013.7 -0.1 66
2017-08-17 20:00:00 27.8 10 Sudeste 21 Sudeste 0 1012.9 -1.2 64
2017-08-17 19:00:00 28.1 14 Sudeste 24 Sudeste 0 1013.4 -1.2 63
2017-08-17 18:00:00 28.7 15 Sudeste 27 Este 0 1013.8 -1.2 62
2017-08-17 17:00:00 29 12 Sudeste 22 Sur 0 1014.1 -1.6 61
2017-08-17 16:00:00 28.7 11 Sur 26 Sur 0 1014.6 -1.4 63
2017-08-17 15:00:00 29.2 15 Sudeste 28 Sudeste 0 1015 -0.9 63
2017-08-17 14:00:00 28.4 15 Sur 30 Sur 0 1015.7 0 64
2017-08-17 13:00:00 29.2 16 Sudeste 30 Sudeste 0 1016 0.6 61
2017-08-17 12:00:00 29.4 18 Sudeste 28 Sudeste 0 1015.9 0.5 57
2017-08-17 11:00:00 28.8 12 Sur 22 Sudeste 0 1015.7 0.7 58
2017-08-17 10:00:00 28.2 4 Este 14 Sudeste 0 1015.4 0.7 61
2017-08-17 09:00:00 26.5 3 Norte 8 Noroeste 0 1015.4 1.2 73
2017-08-17 08:00:00 24.8 3 Norte 6 Noroeste 0 1015 0.9 77
2017-08-17 07:00:00 25.1 2 Nordeste 6 Nordeste 0 1014.7 0.7 76
2017-08-17 06:00:00 25 2 Nordeste 7 Norte 0 1014.2 0.2 77
2017-08-17 05:00:00 25.1 4 Norte 9 Este 0 1014.1 -0.1 76
2017-08-17 04:00:00 25.8 6 Este 11 Este 0 1014 -0.4 76
2017-08-17 03:00:00 25.7 4 Nordeste 6 Nordeste 0 1014 -0.3 75
2017-08-17 02:00:00 25.6 3 Nordeste 7 Nordeste 0 1014.2 -0.1 76
2017-08-17 01:00:00 25.9 2 Nordeste 6 Nordeste 0 1014.4 0.2 77
2017-08-17 00:00:00 26.2 2 Noroeste 6 Oeste 0 1014.3 0.2 77
2017-08-16 23:00:00 26.4 3 Oeste 7 Oeste 0 1014.3 1.3 75
2017-08-16 22:00:00 26.7 3 Sudoeste 8 Sudoeste 0 1014.2 1.1 73
2017-08-16 21:00:00 27 5 Sudoeste 10 Sur 0 1014.1 0.9 70
2017-08-16 20:00:00 27.7 8 Sudoeste 15 Sudeste 0 1013 -0.6 66
2017-08-16 19:00:00 28.1 8 Sur 16 Sudeste 0 1013.1 -0.9 65
2017-08-16 18:00:00 28.9 8 Sudeste 19 Sudeste 0 1013.2 -1.3 63
2017-08-16 17:00:00 28.8 11 Sur 18 Sur 0 1013.6 -1.3 61
2017-08-16 16:00:00 29.1 9 Sur 18 Sudeste 0 1014 -1.2 62
2017-08-16 15:00:00 28.2 8 Sur 18 Sur 0 1014.5 -0.7 66
2017-08-16 14:00:00 28.1 9 Sudeste 21 Sur 0 1014.9 -0.4 69
2017-08-16 13:00:00 28.5 9 Sur 19 Sudeste 0 1015.2 0.2 65
2017-08-16 12:00:00 28.4 8 Sur 16 Sur 0 1015.2 0.2 65
2017-08-16 11:00:00 26.9 5 Sur 12 Sur 0 1015.3 0.8 74
2017-08-16 10:00:00 25.9 3 Sur 7 Oeste 0 1015 0.9 79
2017-08-16 09:00:00 26.1 4 Sudoeste 12 Sudoeste 0 1015 1.5 77
2017-08-16 08:00:00 25.8 2 Sur 6 Este 0 1014.5 1.1 75
2017-08-16 07:00:00 25.6 5 Nordeste 8 Este 0 1014.1 0.3 77
2017-08-16 06:00:00 25.6 2 Sudoeste 7 Noroeste 0 1013.5 -0.5 79
2017-08-16 05:00:00 26 3 Noroeste 9 Noroeste 0 1013.4 -0.8 78
2017-08-16 04:00:00 25.6 3 Nordeste 7 Nordeste 0 1013.8 -0.4 77
2017-08-16 03:00:00 25.8 2 Sur 5 Norte 0 1014 -0.4 77
2017-08-16 02:00:00 25.8 3 Noroeste 7 Oeste 0 1014.2 -0.3 77
2017-08-16 01:00:00 26.1 4 Sudoeste 8 Sudoeste 0 1014.2 0 77
2017-08-16 00:00:00 26.2 5 Oeste 10 Oeste 0 1014.4 1.3 77
2017-08-15 23:00:00 26.4 6 Oeste 11 Oeste 0 1014.5 2.9 76
2017-08-15 22:00:00 26.7 5 Sudoeste 12 Sudoeste 0 1014.2 2.2 74
2017-08-15 21:00:00 27.2 6 Sudoeste 12 Sur 0 1013.1 1.1 72
2017-08-15 20:00:00 27.9 4 Sudeste 15 Sudeste 0 1011.6 -0.6 67
2017-08-15 19:00:00 27.7 12 Sudeste 26 Este 0 1012 -0.9 68
2017-08-15 18:00:00 28.9 14 Sudeste 30 Sudeste 0 1012 -0.9 63
2017-08-15 17:00:00 29.5 18 Sudeste 28 Sudeste 0 1012.2 -0.6 59
2017-08-15 16:00:00 29.3 12 Sur 33 Sudeste 0 1012.9 -0.7 61
2017-08-15 15:00:00 29.5 20 Sudeste 40 Sudeste 0 1012.9 -0.4 58
2017-08-15 14:00:00 30.2 25 Sudeste 44 Sudeste 0 1012.8 -0.5 57
2017-08-15 13:00:00 29.2 23 Sudeste 40 Sudeste 0 1013.6 0.1 59
2017-08-15 12:00:00 31 22 Sudeste 35 Sudeste 0 1013.3 -0.6 47
2017-08-15 11:00:00 30.6 13 Sudeste 21 Este 0 1013.3 -0.4 45
2017-08-15 10:00:00 28.4 4 Norte 12 Norte 0 1013.5 1.2 47
2017-08-15 09:00:00 26.6 5 Noroeste 11 Norte 0 1013.9 2.1 52
2017-08-15 08:00:00 24 3 Sudeste 8 Noroeste 0 1013.7 1.9 60
2017-08-15 07:00:00 24.2 3 Nordeste 8 Noroeste 0 1012.3 0.2 59
2017-08-15 06:00:00 24.3 3 Oeste 11 Nordeste 0 1011.8 -0.5 58
2017-08-15 05:00:00 24.8 3 Este 10 Norte 0 1011.8 -1.5 56
2017-08-15 04:00:00 25 5 Nordeste 14 Sur 0 1012.1 -1.7 54
2017-08-15 03:00:00 24.8 3 Oeste 12 Oeste 0 1012.3 -1.2 54
2017-08-15 02:00:00 25.2 5 Nordeste 10 Nordeste 0 1013.3 0.1 55
2017-08-15 01:00:00 25.5 4 Nordeste 10 Este 0 1013.8 1.3 54
2017-08-15 00:00:00 25.9 3 Sudoeste 9 Nordeste 0 1013.5 1.9 51
2017-08-14 23:00:00 26.3 8 Este 27 Este 0 1013.2 1.7 53
2017-08-14 22:00:00 26.8 16 Este 32 Este 0 1012.5 0.8 54
2017-08-14 21:00:00 27.4 18 Este 31 Este 0 1011.6 1.2 52
2017-08-14 20:00:00 27.4 15 Este 33 Sudeste 0 1011.5 0.7 58
2017-08-14 19:00:00 27.6 23 Sudeste 41 Este 0 1011.7 0.2 61
2017-08-14 18:00:00 28.9 26 Este 42 Sudeste 0 1010.4 -1.7 50
2017-08-14 17:00:00 28.6 22 Sudeste 38 Sudeste 0 1010.8 -1.6 56
2017-08-14 16:00:00 29.4 22 Sudeste 41 Sudeste 0 1011.5 -1.8 51
2017-08-14 15:00:00 28.8 24 Sudeste 39 Sudeste 0 1012.1 -1.4 56
2017-08-14 14:00:00 29.4 19 Sudeste 36 Sudeste 0 1012.4 -1.2 53
2017-08-14 13:00:00 29.7 15 Sudeste 35 Sudeste 0 1013.3 -0.2 46
2017-08-14 12:00:00 28.8 19 Sudeste 37 Este 0 1013.5 0.1 49
2017-08-14 11:00:00 28.2 19 Este 35 Este 0 1013.6 0.8 48
2017-08-14 10:00:00 27.3 14 Este 30 Nordeste 0 1013.5 1.3 50
2017-08-14 09:00:00 26 12 Nordeste 26 Este 0 1013.4 1.3 52
2017-08-14 08:00:00 22.5 5 Norte 7 Sudoeste 0 1012.8 0.3 59
2017-08-14 07:00:00 22.4 2 Oeste 5 Nordeste 0 1012.2 -0.7 60
2017-08-14 06:00:00 22.8 3 Sudoeste 11 Nordeste 0 1012.1 -1.5 57
2017-08-14 05:00:00 22.7 3 Noroeste 6 Noroeste 0 1012.5 -1 61
2017-08-14 04:00:00 23.1 2 Noroeste 12 Nordeste 0 1012.9 -1.1 59
2017-08-14 03:00:00 23.7 3 Noroeste 12 Nordeste 0 1013.6 -0.5 53
2017-08-14 02:00:00 24.5 6 Nordeste 15 Nordeste 0 1013.5 -0.2 56
2017-08-14 01:00:00 24.5 5 Nordeste 13 Nordeste 0 1014 1 56
2017-08-14 00:00:00 24.9 4 Nordeste 16 Nordeste 0 1014.1 1.8 59
2017-08-13 23:00:00 25.1 10 Este 24 Nordeste 0 1013.7 1.4 58
2017-08-13 22:00:00 25.6 15 Este 30 Este 0 1013 0.7 56
2017-08-13 21:00:00 25.8 14 Este 32 Sudeste 0 1012.3 -1 64
2017-08-13 20:00:00 26.4 20 Sudeste 38 Sudeste 0 1012.3 0.2 61
2017-08-13 19:00:00 27.4 17 Sudeste 36 Este 0 1012.3 -1.3 58
2017-08-13 18:00:00 27.8 21 Sudeste 37 Sudeste 0 1013.3 -0.6 57
2017-08-13 17:00:00 28.5 22 Sudeste 41 Sudeste 0 1012.1 -1.7 52
2017-08-13 16:00:00 28.5 21 Sudeste 40 Sudeste 0 1013.6 -1 54
2017-08-13 15:00:00 28.2 21 Sudeste 39 Sudeste 0 1013.9 -1.1 55
2017-08-13 14:00:00 28.8 21 Sudeste 40 Sudeste 0 1013.8 -1 48
2017-08-13 13:00:00 29.7 19 Sudeste 34 Sudeste 0 1014.6 -0.5 41
2017-08-13 12:00:00 29 17 Sudeste 33 Este 0 1015 0 44
2017-08-13 11:00:00 28.1 17 Este 33 Este 0 1014.8 0 43
2017-08-13 10:00:00 26.6 13 Este 26 Este 0 1015.1 0.8 51
2017-08-13 09:00:00 25.5 11 Este 19 Este 0 1015 1 56
2017-08-13 08:00:00 22.3 4 Norte 8 Norte 0 1014.8 0.4 62
2017-08-13 07:00:00 21.8 3 Norte 8 Norte 0 1014.3 -0.7 64
2017-08-13 06:00:00 -- -- -- -- -- -- -- -- --
2017-08-13 05:00:00 -- -- -- -- -- -- -- -- --
2017-08-13 04:00:00 -- -- -- -- -- -- -- -- --
2017-08-13 03:00:00 -- -- -- -- -- -- -- -- --
2017-08-13 02:00:00 -- -- -- -- -- -- -- -- --
2017-08-13 01:00:00 -- -- -- -- -- -- -- -- --
2017-08-13 00:00:00 -- -- -- -- -- -- -- -- --
2017-08-12 23:00:00 -- -- -- -- -- -- -- -- --
2017-08-12 22:00:00 -- -- -- -- -- -- -- -- --
2017-08-12 21:00:00 -- -- -- -- -- -- -- -- --
2017-08-12 20:00:00 -- -- -- -- -- -- -- -- --
2017-08-12 19:00:00 -- -- -- -- -- -- -- -- --
2017-08-12 18:00:00 -- -- -- -- -- -- -- -- --
2017-08-12 17:00:00 -- -- -- -- -- -- -- -- --
2017-08-12 16:00:00 -- -- -- -- -- -- -- -- --
2017-08-12 15:00:00 -- -- -- -- -- -- -- -- --
2017-08-12 14:00:00 -- -- -- -- -- -- -- -- --
2017-08-12 13:00:00 -- -- -- -- -- -- -- -- --
2017-08-12 12:00:00 -- -- -- -- -- -- -- -- --
2017-08-12 11:00:00 -- -- -- -- -- -- -- -- --
2017-08-12 10:00:00 -- -- -- -- -- -- -- -- --
2017-08-12 09:00:00 -- -- -- -- -- -- -- -- --
2017-08-12 08:00:00 -- -- -- -- -- -- -- -- --
2017-08-12 07:00:00 -- -- -- -- -- -- -- -- --
2017-08-12 06:00:00 -- -- -- -- -- -- -- -- --
2017-08-12 05:00:00 22.6 4 Norte 12 Nordeste 0 1016.3 -0.3 64
2017-08-12 04:00:00 23.5 3 Nordeste 11 Este 0 1016.6 -0.1 62
2017-08-12 03:00:00 23.8 5 Nordeste 14 Nordeste 0 1016.6 -0.1 63
2017-08-12 02:00:00 23.7 4 Norte 14 Nordeste 0 1016.6 0.2 60
2017-08-12 01:00:00 24.1 7 Nordeste 19 Nordeste 0 1016.7 1 55
2017-08-12 00:00:00 24.3 8 Este 21 Este 0 1016.7 1.6 52
2017-08-11 23:00:00 24.8 10 Este 19 Este 0 1016.4 1.5 60
2017-08-11 22:00:00 24.7 8 Este 20 Este 0 1015.7 0.8 63
2017-08-11 21:00:00 25.2 10 Este 30 Este 0 1015.1 0.1 59
2017-08-11 20:00:00 26 17 Este 32 Sudeste 0 1014.9 -0.8 55
2017-08-11 19:00:00 26.7 20 Sudeste 36 Sudeste 0 1014.9 -1.6 50
2017-08-11 18:00:00 26.7 22 Sudeste 35 Sudeste 0 1015 -1.9 49
2017-08-11 17:00:00 27.4 21 Sudeste 40 Este 0 1015.7 -0.5 51
2017-08-11 16:00:00 27.6 19 Sudeste 33 Sudeste 0 1016.5 -0.6 47
2017-08-11 15:00:00 27.9 21 Sudeste 39 Sudeste 0 1016.9 -0.5 43
2017-08-11 14:00:00 28 21 Sudeste 34 Este 0 1016.2 -1.2 40
2017-08-11 13:00:00 28.3 19 Sudeste 34 Sudeste 0 1017.1 0.1 40
2017-08-11 12:00:00 28.5 17 Sudeste 33 Este 0 1017.4 0.7 33
2017-08-11 11:00:00 28.3 17 Sudeste 30 Este 0 1017.4 1.2 31
2017-08-11 10:00:00 27.9 11 Este 22 Este 0 1017 0.7 35
2017-08-11 09:00:00 25.6 3 Sur 7 Sudeste 0 1016.7 0.3 53
2017-08-11 08:00:00 23.4 4 Nordeste 8 Nordeste 0 1016.2 -0.3 59
2017-08-11 07:00:00 23.2 0 Calma 9 Nordeste 0 1016.3 -0.6 60
2017-08-11 06:00:00 23.6 4 Sudeste 8 Este 0 1016.4 -1 58
2017-08-11 05:00:00 24.3 5 Este 9 Este 0 1016.5 -1.4 57
2017-08-11 04:00:00 24.3 5 Este 11 Este 0 1016.9 -1.3 58
2017-08-11 03:00:00 24.4 7 Este 11 Este 0 1017.4 -0.6 58
2017-08-11 02:00:00 24.4 7 Este 14 Este 0 1017.9 0.2 58
2017-08-11 01:00:00 24.5 8 Este 22 Este 0 1018.2 1.1 59
2017-08-11 00:00:00 24.5 13 Este 24 Este 0 1018 1.4 60
2017-08-10 23:00:00 24.5 10 Este 23 Este 0 1017.7 1.2 64
2017-08-10 22:00:00 24.4 11 Este 23 Este 0 1017.1 0.8 64
2017-08-10 21:00:00 24.4 13 Este 25 Este 0 1016.6 0.3 63
2017-08-10 20:00:00 25.3 16 Sudeste 35 Sudeste 0 1016.5 0.1 60
2017-08-10 19:00:00 25.6 20 Sudeste 40 Sudeste 0 1016.3 -0.1 59
2017-08-10 18:00:00 27.2 23 Sudeste 43 Sudeste 0 1016.3 -0.3 51
2017-08-10 17:00:00 27.3 26 Sudeste 45 Sudeste 0 1016.4 -0.5 53
2017-08-10 16:00:00 27.2 24 Sudeste 45 Sudeste 0 1016.4 -0.7 52
2017-08-10 15:00:00 28.3 23 Sudeste 38 Este 0 1016.6 -0.2 44
2017-08-10 14:00:00 28.3 22 Este 34 Este 0 1016.9 0.5 42
2017-08-10 13:00:00 26.7 16 Este 42 Este 0 1017.1 1.2 47
2017-08-10 12:00:00 25.8 18 Nordeste 34 Este 0 1016.8 1.5 48
2017-08-10 11:00:00 26.5 21 Este 38 Nordeste 0 1016.4 1.9 47
2017-08-10 10:00:00 25 15 Este 30 Nordeste 0 1015.9 2.3 51
2017-08-10 09:00:00 24.7 14 Este 31 Nordeste 0 1015.3 2.8 53
2017-08-10 08:00:00 24.6 19 Este 39 Este 0 1014.5 2.8 54
2017-08-10 07:00:00 24.8 18 Este 44 Este 0 1013.6 2.4 55
2017-08-10 06:00:00 25.2 14 Este 39 Este 0 1012.5 1.5 58
2017-08-10 05:00:00 25.6 23 Este 50 Este 0 1011.7 0.9 57
2017-08-10 04:00:00 25.8 26 Este 45 Nordeste 0 1011.2 0.6 63
2017-08-10 03:00:00 26.9 6 Este 14 Este 0 1011 0.5 69
2017-08-10 02:00:00 26.6 5 Nordeste 9 Este 0 1010.8 0.6 73
2017-08-10 01:00:00 26.8 3 Nordeste 8 Este 0 1010.6 1.6 73
2017-08-10 00:00:00 26.8 6 Este 9 Este 0 1010.5 2.2 72
2017-08-09 23:00:00 26.9 4 Sudeste 9 Sudeste 0 1010.2 2.2 72
2017-08-09 22:00:00 27.2 5 Sudeste 11 Sur 0 1009 1.2 70
2017-08-09 21:00:00 27.8 4 Sur 11 Sudeste 0 1008.3 0.2 66
2017-08-09 20:00:00 28.4 6 Sur 20 Sudoeste 0 1008 -0.3 67
2017-08-09 19:00:00 29.6 9 Sudoeste 23 Sudoeste 0 1007.8 -0.9 63
2017-08-09 18:00:00 30.3 13 Sur 26 Sur 0 1008.1 -0.8 56
2017-08-09 17:00:00 30.4 14 Sur 25 Sur 0 1008.3 -1.1 58
2017-08-09 16:00:00 29.8 14 Sur 23 Sur 0 1008.7 -1.1 59
2017-08-09 15:00:00 31 12 Sur 23 Sur 0 1008.9 -1 49
2017-08-09 14:00:00 30.3 14 Sur 24 Sur 0 1009.4 -0.5 50
2017-08-09 13:00:00 30.5 14 Sur 23 Sur 0 1009.8 -0.1 47
2017-08-09 12:00:00 31.1 11 Sudeste 24 Sudeste 0 1009.9 -0.2 45
2017-08-09 11:00:00 30.7 13 Sudeste 22 Sur 0 1009.9 0.4 45
2017-08-09 10:00:00 30.2 3 Oeste 8 Sur 0 1009.9 0.6 47
2017-08-09 09:00:00 27.4 5 Oeste 10 Noroeste 0 1010.1 1 56
2017-08-09 08:00:00 26.9 4 Noroeste 23 Nordeste 0 1009.5 0 58
2017-08-09 07:00:00 26.7 11 Nordeste 23 Nordeste 0 1009.3 0 62
2017-08-09 06:00:00 26.7 10 Nordeste 30 Nordeste 0 1009.1 -0.8 62
2017-08-09 05:00:00 27.2 9 Nordeste 18 Nordeste 0 1009.5 -0.3 61
2017-08-09 04:00:00 27.2 9 Nordeste 22 Nordeste 0 1009.3 -0.8 62
2017-08-09 03:00:00 27 5 Noroeste 21 Nordeste 0 1009.9 0.1 56
2017-08-09 02:00:00 27.4 9 Nordeste 25 Este 0 1009.8 1.8 56
2017-08-09 01:00:00 28 9 Este 30 Este 0 1010.1 2.2 56
2017-08-09 00:00:00 28.5 15 Este 29 Este 0 1009.8 2.9 62
2017-08-08 23:00:00 29.1 13 Este 33 Este 0 1008 1.8 56
2017-08-08 22:00:00 29.1 17 Este 30 Este 0 1007.9 2.1 61
2017-08-08 21:00:00 30.8 15 Este 28 Este 0 1006.9 1.3 46
2017-08-08 20:00:00 32.3 15 Este 23 Este 0 1006.2 0.3 43
2017-08-08 19:00:00 31 9 Sudeste 19 Sudeste 0 1005.8 -0.4 61
2017-08-08 18:00:00 31.3 8 Sur 19 Sur 0 1005.6 -0.7 62
2017-08-08 17:00:00 30.2 9 Sur 16 Sudeste 0 1005.9 -0.6 65
2017-08-08 16:00:00 30.1 6 Sur 21 Sudoeste 0 1006.2 -0.4 65
2017-08-08 15:00:00 30.5 12 Sur 25 Sudeste 0 1006.3 -0.2 64
2017-08-08 14:00:00 32.3 14 Sudeste 21 Sudeste 0 1006.5 0.3 56
2017-08-08 13:00:00 31.3 12 Sudeste 19 Sur 0 1006.6 0.6 57
2017-08-08 12:00:00 30.8 8 Sur 19 Sur 0 1006.5 0.9 62
2017-08-08 11:00:00 30.5 8 Sur 16 Este 0 1006.2 0.2 65
2017-08-08 10:00:00 30.1 5 Sudeste 10 Sudeste 0 1006 0.1 68
2017-08-08 09:00:00 28.4 3 Este 7 Nordeste 0 1005.6 -0.3 74
2017-08-08 08:00:00 26.4 4 Nordeste 8 Nordeste 0 1006 -0.4 78
2017-08-08 07:00:00 25.6 0 Calma 9 Noroeste 0 1005.9 -0.9 77
2017-08-08 06:00:00 26.1 3 Norte 8 Noroeste 0 1005.9 -1.5 77
2017-08-08 05:00:00 26.1 2 Noroeste 9 Norte 0 1006.4 -2.5 76
2017-08-08 04:00:00 26.9 3 Norte 11 Norte 0 1006.8 -2.1 75
2017-08-08 03:00:00 27.6 4 Norte 9 Norte 0 1007.4 -1.8 74
2017-08-08 02:00:00 27.8 3 Nordeste 8 Noroeste 0 1008.9 -0.7 74
2017-08-08 01:00:00 27.4 5 Noroeste 12 Oeste 0 1008.9 -0.1 73
2017-08-08 00:00:00 27.8 6 Oeste 17 Oeste 0 1009.2 0.4 74
2017-08-07 23:00:00 28.2 6 Sudoeste 32 Este 0 1009.6 1.4 72
2017-08-07 22:00:00 28.4 6 Noroeste 22 Oeste 0 1009 -0.1 68
2017-08-07 21:00:00 28.1 4 Sudoeste 17 Sudeste 0 1008.8 -0.4 68
2017-08-07 20:00:00 28.6 10 Sudeste 24 Sudeste 0 1008.2 -1.5 67
2017-08-07 19:00:00 29.9 5 Sur 16 Sudeste 0 1009.1 -1.5 63
2017-08-07 18:00:00 29.7 8 Sur 20 Sur 0 1009.2 -1.8 63
2017-08-07 17:00:00 29.6 10 Sur 21 Sur 0 1009.7 -2.1 63
2017-08-07 16:00:00 30.7 12 Sur 24 Sur 0 1010.6 -1.4 60
2017-08-07 15:00:00 30.5 11 Sur 21 Sur 0 1011 -1 60
2017-08-07 14:00:00 29.7 10 Sur 24 Sudeste 0 1011.8 0.2 63
2017-08-07 13:00:00 29.6 13 Sudeste 24 Sur 0 1012 0.6 64
2017-08-07 12:00:00 30.2 12 Sur 23 Sudeste 0 1012 0.1 62
2017-08-07 11:00:00 28.8 13 Sudeste 23 Sudeste 0 1011.6 -0.3 67
2017-08-07 10:00:00 29.3 9 Sudeste 21 Sudeste 0 1011.4 -0.4 61
2017-08-07 09:00:00 28.4 10 Este 16 Sudeste 0 1011.9 0.4 66
2017-08-07 08:00:00 27.4 8 Este 12 Este 0 1011.9 0.4 68
2017-08-07 07:00:00 27.2 6 Este 11 Este 0 1011.8 0.3 66
2017-08-07 06:00:00 27.4 6 Este 12 Este 0 1011.5 -0.2 68
2017-08-07 05:00:00 27.4 8 Este 12 Este 0 1011.5 -0.9 69
2017-08-07 04:00:00 27.3 5 Este 10 Este 0 1011.5 -1.3 69
2017-08-07 03:00:00 27.7 7 Este 14 Este 0 1011.7 -1.6 68
2017-08-07 02:00:00 28 7 Este 13 Este 0 1012.4 -1.2 73
2017-08-07 01:00:00 28.2 6 Sudeste 14 Este 0 1012.8 0.5 70
2017-08-07 00:00:00 28.3 9 Sudeste 15 Sudeste 0 1013.3 2.1 70
2017-08-06 23:00:00 28.3 10 Sudeste 17 Este 0 1013.6 2.5 70
2017-08-06 22:00:00 28.3 11 Este 22 Este 0 1012.3 1.1 70
2017-08-06 21:00:00 28.8 12 Este 21 Sudeste 0 1011.2 0.1 67
2017-08-06 20:00:00 28.9 15 Sudeste 24 Sudeste 0 1011.1 0 67
2017-08-06 19:00:00 29.6 13 Sudeste 28 Sudeste 0 1011.2 -0.3 66
2017-08-06 18:00:00 30.2 16 Sudeste 28 Sudeste 0 1011.1 -0.5 63
2017-08-06 17:00:00 31.1 14 Sudeste 28 Sudeste 0 1011.1 -0.8 59
2017-08-06 16:00:00 31.1 14 Sudeste 33 Sudeste 0 1011.5 -0.6 59
2017-08-06 15:00:00 30.7 16 Sudeste 28 Sudeste 0 1011.6 -0.6 61
2017-08-06 14:00:00 30.9 18 Sudeste 30 Sudeste 0 1011.9 0.2 60
2017-08-06 13:00:00 30.3 19 Sudeste 28 Sudeste 0 1012.1 0.7 61
2017-08-06 12:00:00 31 17 Sudeste 26 Sudeste 0 1012.2 1.4 59
2017-08-06 11:00:00 30.3 12 Sudeste 23 Sudeste 0 1011.7 1.1 62
2017-08-06 10:00:00 29.6 6 Sudoeste 10 Sur 0 1011.4 1.5 64
2017-08-06 09:00:00 28.5 3 Norte 6 Norte 0 1010.8 1 68
2017-08-06 08:00:00 26.5 2 Norte 6 Nordeste 0 1010.6 0.9 73
2017-08-06 07:00:00 26.5 3 Norte 8 Nordeste 0 1009.9 -0.2 72
2017-08-06 06:00:00 25.8 3 Norte 6 Norte 0 1009.8 -0.5 72
2017-08-06 05:00:00 26.6 0 Calma 10 Norte 0 1009.7 -1.2 67
2017-08-06 04:00:00 27.5 4 Nordeste 8 Nordeste 0 1010.1 0.4 66
2017-08-06 03:00:00 27.5 4 Nordeste 9 Nordeste 0 1010.3 0.1 64
2017-08-06 02:00:00 27.6 3 Nordeste 7 Nordeste 0 1010.9 0.9 62
2017-08-06 01:00:00 27.9 3 Nordeste 7 Este 0 1009.7 0.5 65
2017-08-06 00:00:00 28.2 4 Este 8 Este 0 1010.2 1.4 69
2017-08-05 23:00:00 28.6 4 Sudeste 10 Sudeste 0 1010 1.4 70
2017-08-05 22:00:00 29 3 Sudoeste 7 Sur 0 1009.2 0.4 68
2017-08-05 21:00:00 29.7 3 Sur 9 Sudeste 0 1008.8 -0.3 64
2017-08-05 20:00:00 30.9 3 Sudoeste 12 Sudoeste 0 1008.6 -1.1 59
2017-08-05 19:00:00 31.1 7 Sudoeste 14 Sudeste 0 1008.8 -1.7 52
2017-08-05 18:00:00 31.7 7 Sur 17 Sudeste 0 1009.1 -1.9 53
2017-08-05 17:00:00 31.3 9 Sur 18 Sur 0 1009.7 -1.9 54
2017-08-05 16:00:00 31.1 10 Sur 21 Sudeste 0 1010.5 -1.4 57
2017-08-05 15:00:00 30.8 12 Sur 21 Sur 0 1011 -1 57
2017-08-05 14:00:00 30.4 13 Sur 23 Sudeste 0 1011.6 -0.3 60
2017-08-05 13:00:00 30.3 11 Sur 22 Sur 0 1011.9 0.5 62
2017-08-05 12:00:00 30.1 10 Sur 20 Sur 0 1012 1.1 64
2017-08-05 11:00:00 30 9 Sur 18 Sudeste 0 1011.9 1.2 62
2017-08-05 10:00:00 30.3 7 Sur 10 Sur 0 1011.4 0.8 45
2017-08-05 09:00:00 29.1 0 Calma 5 Noroeste 0 1010.9 0.7 44
2017-08-05 08:00:00 25.7 4 Nordeste 8 Norte 0 1010.7 0.6 53
2017-08-05 07:00:00 25.5 3 Nordeste 8 Norte 0 1010.6 0.4 52
2017-08-05 06:00:00 25.9 3 Nordeste 8 Nordeste 0 1010.2 -0.4 51
2017-08-05 05:00:00 25.6 0 Calma 6 Norte 0 1010.1 -0.9 57
2017-08-05 04:00:00 25.6 0 Calma 5 Nordeste 0 1010.2 0 59
2017-08-05 03:00:00 26.2 2 Norte 4 Nordeste 0 1010.6 -0.4 59
2017-08-05 02:00:00 26.8 0 Calma 5 Nordeste 0 1011 0.4 58
2017-08-05 01:00:00 27.5 3 Norte 7 Norte 0 1010.2 0.2 56
2017-08-05 00:00:00 28.3 3 Noroeste 4 Noroeste 0 1011 1.4 55
2017-08-04 23:00:00 28.8 3 Noroeste 6 Oeste 0 1010.6 1.1 55
2017-08-04 22:00:00 29.5 2 Sudoeste 6 Oeste 0 1010 0.5 55
2017-08-04 21:00:00 30 3 Sudoeste 9 Sudoeste 0 1009.6 -0.2 52
2017-08-04 20:00:00 30.4 6 Sur 14 Sudoeste 0 1009.5 -0.4 55
2017-08-04 19:00:00 30.7 7 Sudoeste 17 Sur 0 1009.5 -0.8 66
2017-08-04 18:00:00 31.4 8 Sur 18 Sudeste 0 1009.8 -0.8 55
2017-08-04 17:00:00 31.9 11 Sur 19 Sur 0 1009.9 -1.2 49
2017-08-04 16:00:00 31.4 11 Sur 21 Sur 0 1010.3 -1.2 50
2017-08-04 15:00:00 31.9 11 Sur 22 Sur 0 1010.6 -1.1 52
2017-08-04 14:00:00 32.3 10 Sur 18 Sur 0 1011.1 -0.5 51
2017-08-04 13:00:00 32.2 9 Sudeste 22 Sudeste 0 1011.5 0.2 53
2017-08-04 12:00:00 31.5 11 Sudeste 22 Sur 0 1011.7 1.5 56
2017-08-04 11:00:00 31.7 10 Sudeste 20 Sudeste 0 1011.6 1.3 53
2017-08-04 10:00:00 31 8 Sudeste 17 Este 0 1011.3 1.7 57
2017-08-04 09:00:00 28.6 10 Este 14 Este 0 1010.2 0.7 73
2017-08-04 08:00:00 25.7 0 Calma 5 Noroeste 0 1010.3 0.6 65
2017-08-04 07:00:00 25.7 0 Calma 9 Nordeste 0 1009.6 -0.4 73
2017-08-04 06:00:00 25.7 3 Nordeste 6 Norte 0 1009.5 -1.2 68
2017-08-04 05:00:00 26.4 4 Nordeste 7 Nordeste 0 1009.7 -1.6 72
2017-08-04 04:00:00 25.9 0 Calma 6 Norte 0 1010 -1.1 68
2017-08-04 03:00:00 27 4 Norte 8 Este 0 1010.7 -0.6 75
2017-08-04 02:00:00 27.5 4 Este 10 Este 0 1011.3 0.3 75
2017-08-04 01:00:00 28 4 Este 10 Sudeste 0 1011.1 0.6 69
2017-08-04 00:00:00 28.8 6 Sudeste 9 Sudeste 0 1011.3 1.1 67
2017-08-03 23:00:00 28.6 2 Noroeste 8 Oeste 0 1011 1.2 65
2017-08-03 22:00:00 29.1 3 Sudoeste 7 Oeste 0 1010.5 0.7 64
2017-08-03 21:00:00 29.4 3 Sudoeste 11 Sudoeste 0 1010.2 0.1 65
2017-08-03 20:00:00 30.3 5 Sudoeste 14 Sur 0 1009.8 -0.7 60
2017-08-03 19:00:00 30.9 6 Sur 16 Sur 0 1009.8 -1.4 59
2017-08-03 18:00:00 30.6 10 Sur 18 Sur 0 1010.1 -1.6 64
2017-08-03 17:00:00 31.3 10 Sur 19 Sur 0 1010.5 -1.6 56
2017-08-03 16:00:00 30.5 12 Sudoeste 21 Sur 0 1011.2 -1.5 64
2017-08-03 15:00:00 30.9 12 Sudoeste 25 Sudoeste 0 1011.7 -1.3 62
2017-08-03 14:00:00 30.8 12 Sudoeste 22 Sudoeste 0 1012.1 -1 62
2017-08-03 13:00:00 30.7 10 Sur 22 Sur 0 1012.7 -0.2 61
2017-08-03 12:00:00 30.6 10 Sudoeste 18 Sudoeste 0 1013 0.4 61
2017-08-03 11:00:00 30.1 11 Sur 17 Sur 0 1013.1 0.7 61
2017-08-03 10:00:00 30.1 5 Sur 10 Sur 0 1012.9 0.9 61
2017-08-03 09:00:00 28.9 2 Nordeste 7 Nordeste 0 1012.6 1 69
2017-08-03 08:00:00 27.1 5 Nordeste 8 Nordeste 0 1012.4 1.3 67
2017-08-03 07:00:00 26.5 2 Noroeste 8 Norte 0 1012 0.9 63
2017-08-03 06:00:00 26.3 4 Nordeste 9 Norte 0 1011.6 0.4 62
2017-08-03 05:00:00 26.7 4 Norte 8 Nordeste 0 1011.1 -0.8 62
2017-08-03 04:00:00 26.7 6 Norte 10 Norte 0 1011.1 -1.4 65
2017-08-03 03:00:00 26.8 2 Nordeste 11 Noroeste 0 1011.2 -1.2 73
2017-08-03 02:00:00 27.1 5 Oeste 12 Noroeste 0 1011.9 -0.6 76
2017-08-03 01:00:00 27.6 5 Noroeste 9 Noroeste 0 1012.5 0.5 77
2017-08-03 00:00:00 28 5 Oeste 9 Oeste 0 1012.4 0.6 76
2017-08-02 23:00:00 28.3 4 Oeste 10 Sudeste 0 1012.5 1.7 74
2017-08-02 22:00:00 28.4 7 Sudeste 18 Sudeste 0 1012 1.6 74
2017-08-02 21:00:00 28.8 10 Sudeste 17 Sudeste 0 1011.8 1.3 73
2017-08-02 20:00:00 29.9 6 Sudeste 19 Sudeste 0 1010.8 0 68
2017-08-02 19:00:00 30.7 10 Sudeste 23 Sudeste 0 1010.4 -0.9 60
2017-08-02 18:00:00 31.3 14 Sudeste 25 Sudeste 0 1010.5 -0.8 57
2017-08-02 17:00:00 31.5 14 Sudeste 25 Sudeste 0 1010.8 -0.7 56
2017-08-02 16:00:00 31.3 12 Sudeste 25 Sudeste 0 1011.3 -0.5 57
2017-08-02 15:00:00 30.8 14 Sudeste 26 Sudeste 0 1011.3 -0.9 63
2017-08-02 14:00:00 31.8 11 Sudeste 24 Sudeste 0 1011.5 -0.8 54
2017-08-02 13:00:00 31.5 10 Sur 20 Sur 0 1011.8 0.5 53
2017-08-02 12:00:00 31.4 9 Sur 14 Sur 0 1012.2 0.6 48
2017-08-02 11:00:00 30.8 6 Sur 12 Sur 0 1012.3 2.2 47
2017-08-02 10:00:00 29.6 2 Este 8 Sur 0 1011.3 0.7 51
2017-08-02 09:00:00 28.8 3 Sudoeste 9 Noroeste 0 1011.6 0.9 51
2017-08-02 08:00:00 27.1 4 Norte 10 Noroeste 0 1010.1 -0.5 60
2017-08-02 07:00:00 26.8 5 Noroeste 13 Noroeste 0 1010.6 -2.2 63
2017-08-02 06:00:00 27.2 2 Norte 10 Nordeste 0 1010.7 -0.5 65
2017-08-02 05:00:00 27.6 6 Este 12 Nordeste 0 1010.6 -1.2 66
2017-08-02 04:00:00 28.3 9 Sudoeste 16 Sudoeste 0 1012.8 0.2 70
2017-08-02 03:00:00 27.8 4 Norte 13 Nordeste 0 1011.2 -0.3 59
2017-08-02 02:00:00 28.2 8 Norte 30 Sudeste 0 1011.8 -1.9 66
2017-08-02 01:00:00 28.2 8 Este 28 Oeste 0 1012.6 2.5 66
2017-08-02 00:00:00 28 7 Nordeste 18 Este 0 1011.5 0.9 73
2017-08-01 23:00:00 28.1 4 Este 21 Sudeste 0 1013.7 2.5 74
2017-08-01 22:00:00 28.5 11 Sudeste 26 Este 0 1010.1 -0.9 66
2017-08-01 21:00:00 28.8 7 Este 20 Nordeste 0 1010.6 2.5 66
2017-08-01 20:00:00 28.7 13 Este 32 Sudeste 0 1011.2 2.5 73
2017-08-01 19:00:00 28.9 17 Sudeste 31 Sudeste 0 1011 2.1 71
2017-08-01 18:00:00 29.7 17 Este 30 Sudeste 0 1008.1 -0.8 67
2017-08-01 17:00:00 30.4 17 Sudeste 30 Sudeste 0 1008.7 -0.1 61
2017-08-01 16:00:00 30.5 14 Este 23 Este 0 1008.9 1 55
2017-08-01 15:00:00 30.7 5 Sudeste 18 Sur 0 1008.9 1.1 58
2017-08-01 14:00:00 30.1 9 Sudoeste 22 Sudoeste 0 1008.8 0.7 64
2017-08-01 13:00:00 29.7 10 Sur 22 Sur 0 1007.9 0.2 60
2017-08-01 12:00:00 30.4 10 Sur 18 Este 0 1007.8 1.7 60
2017-08-01 11:00:00 29.4 11 Sur 21 Sudeste 0 1008.1 0.8 57
2017-08-01 10:00:00 29.1 11 Sudeste 21 Sur 0 1007.7 1 64
2017-08-01 09:00:00 28.6 6 Sudoeste 19 Noroeste 0 1006.1 -0.5 50
2017-08-01 08:00:00 26.4 3 Noroeste 11 Noroeste 0 1007.3 1.9 75
2017-08-01 07:00:00 26.5 5 Norte 12 Sudeste 0 1006.7 0.2 75
2017-08-01 06:00:00 26.3 2 Norte 10 Sudeste 0 1006.6 -0.2 75
2017-08-01 05:00:00 26.5 3 Noroeste 12 Nordeste 0 1005.4 -1 74
2017-08-01 04:00:00 27 6 Oeste 16 Oeste 0 1006.5 0.6 73
2017-08-01 03:00:00 27.1 4 Nordeste 10 Nordeste 0 1006.8 0.1 72
2017-08-01 02:00:00 27.4 3 Este 10 Nordeste 0 1006.4 0 72
2017-08-01 01:00:00 27.5 4 Noroeste 11 Oeste 0 1005.9 -0.1 70
2017-08-01 00:00:00 27.5 6 Oeste 9 Oeste 0 1006.7 0.7 70
2017-07-31 23:00:00 27.5 3 Oeste 9 Sudoeste 0 1006.4 1.2 71
2017-07-31 22:00:00 27.8 3 Oeste 17 Sur 0 1006 1.4 70
2017-07-31 21:00:00 28.5 8 Sur 17 Sudoeste 0 1006 1.5 69
2017-07-31 20:00:00 28.6 8 Sur 18 Sudeste 0 1005.2 0.5 69
2017-07-31 19:00:00 29.1 8 Sur 19 Sudeste 0 1004.6 -0.9 66
2017-07-31 18:00:00 29.4 12 Sur 27 Sur 0 1004.5 -1.6 64
2017-07-31 17:00:00 30.5 11 Sudeste 23 Sur 0 1004.7 -1.6 58
2017-07-31 16:00:00 30.4 12 Sur 26 Sudeste 0 1005.5 -1.2 55
2017-07-31 15:00:00 30.5 13 Sudeste 26 Sudeste 0 1006.1 -0.6 59
2017-07-31 14:00:00 30.7 14 Sudeste 21 Sudeste 0 1006.3 -0.5 55
2017-07-31 13:00:00 30 11 Sur 22 Sudeste 0 1006.7 -0.1 60
2017-07-31 12:00:00 30.4 10 Sur 19 Sudeste 0 1006.7 0.7 52
2017-07-31 11:00:00 29.3 10 Sudeste 19 Sudeste 0 1006.8 0.7 59
2017-07-31 10:00:00 29.3 8 Sudeste 16 Sur 0 1006.8 1.3 59
2017-07-31 09:00:00 28.2 2 Sur 6 Norte 0 1006 0.5 40
2017-07-31 08:00:00 24.5 3 Norte 7 Nordeste 0 1006.1 0.4 48
2017-07-31 07:00:00 24.2 4 Norte 8 Norte 0 1005.5 0 46
2017-07-31 06:00:00 24.6 5 Nordeste 10 Norte 0 1005.5 -0.8 52
2017-07-31 05:00:00 24.2 6 Norte 10 Norte 0 1005.7 -1.6 53
2017-07-31 04:00:00 25.3 6 Nordeste 9 Nordeste 0 1005.5 -2.3 52
2017-07-31 03:00:00 25 3 Norte 10 Norte 0 1006.3 -1.4 47
2017-07-31 02:00:00 26 3 Norte 10 Nordeste 0 1007.3 -0.4 59
2017-07-31 01:00:00 26.9 6 Nordeste 9 Nordeste 0 1007.8 1 73
2017-07-31 00:00:00 27.2 5 Este 9 Sudeste 0 1007.7 1.7 72
2017-07-30 23:00:00 27.6 5 Sudeste 12 Sur 0 1007.7 1.9 69
2017-07-30 22:00:00 27.8 6 Este 12 Sudeste 0 1006.8 0.9 66
2017-07-30 21:00:00 28.9 6 Sur 13 Sudeste 0 1006 -0.4 55
2017-07-30 20:00:00 30.2 6 Sudeste 13 Sudeste 0 1005.8 -1.2 42
2017-07-30 19:00:00 32 8 Sudeste 15 Sur 0 1005.9 -1.9 33
2017-07-30 18:00:00 33.7 6 Sur 14 Sur 0 1006.4 -1.7 18
2017-07-30 17:00:00 33.1 6 Sur 18 Sudoeste 0 1007 -1.6 21
2017-07-30 16:00:00 32.6 10 Sudoeste 19 Sudoeste 0 1007.8 -1.2 30
2017-07-30 15:00:00 31.3 9 Sur 19 Sur 0 1008.1 -1.1 41
2017-07-30 14:00:00 29.3 11 Sur 19 Sur 0 1008.6 -0.8 61
2017-07-30 13:00:00 29.6 10 Sur 22 Sur 0 1009 -0.4 63
2017-07-30 12:00:00 29.7 7 Sudeste 17 Sudeste 0 1009.2 -0.4 61
2017-07-30 11:00:00 28.6 9 Sudeste 15 Sur 0 1009.4 -0.1 68
2017-07-30 10:00:00 28.3 10 Sur 19 Sudeste 0 1009.4 0.1 67
2017-07-30 09:00:00 27.3 4 Norte 10 Norte 0 1009.6 0.2 71
2017-07-30 08:00:00 25.1 4 Noroeste 6 Nordeste 0 1009.5 -0.2 71
2017-07-30 07:00:00 25.1 3 Nordeste 8 Nordeste 0 1009.3 -0.4 70
2017-07-30 06:00:00 24.8 3 Sur 6 Norte 0 1009.4 -0.4 65
2017-07-30 05:00:00 25.3 2 Nordeste 9 Norte 0 1009.7 -0.8 55
2017-07-30 04:00:00 25.9 3 Nordeste 8 Nordeste 0 1009.7 -1.2 54
2017-07-30 03:00:00 26 3 Este 6 Norte 0 1009.8 -1.4 50
2017-07-30 02:00:00 26.4 3 Norte 7 Norte 0 1010.5 -0.3 48
2017-07-30 01:00:00 26.6 4 Norte 6 Norte 0 1010.9 0.5 43
2017-07-30 00:00:00 27.4 0 Calma 9 Norte 0 1011.2 1.1 45
2017-07-29 23:00:00 27.5 3 Noroeste 7 Norte 0 1010.8 0.7 46
2017-07-29 22:00:00 28.5 2 Sudoeste 6 Oeste 0 1010.4 0.2 45
2017-07-29 21:00:00 30.2 4 Sudoeste 8 Sur 0 1010.1 -0.5 32
2017-07-29 20:00:00 30.3 5 Sur 13 Sudoeste 0 1010.1 -1 36
2017-07-29 19:00:00 30.5 6 Sudoeste 16 Sudoeste 0 1010.2 -1.4 55
2017-07-29 18:00:00 29.8 8 Sur 19 Sudeste 0 1010.6 -1.5 54
2017-07-29 17:00:00 29.9 10 Sur 20 Sudeste 0 1011.1 -1.5 63
2017-07-29 16:00:00 29.9 11 Sudeste 23 Sudeste 0 1011.6 -1.3 63
2017-07-29 15:00:00 29.9 12 Sudeste 22 Sudeste 0 1012.1 -0.7 66
2017-07-29 14:00:00 29.5 12 Sur 24 Sudeste 0 1012.6 0.2 64
2017-07-29 13:00:00 29.8 12 Sudeste 22 Sur 0 1012.9 0.3 60
2017-07-29 12:00:00 29.8 12 Sur 22 Sur 0 1012.8 0.7 47
2017-07-29 11:00:00 30.2 5 Sur 14 Sudeste 0 1012.4 0.7 44
2017-07-29 10:00:00 29.9 6 Sur 10 Sur 0 1012.6 1.2 40
2017-07-29 09:00:00 28.8 0 Calma 6 Sudeste 0 1012.1 1.1 32
2017-07-29 08:00:00 24.7 3 Nordeste 9 Norte 0 1011.7 0.8 37
2017-07-29 07:00:00 23.5 2 Nordeste 8 Norte 0 1011.4 0.2 41
2017-07-29 06:00:00 23.7 2 Nordeste 7 Norte 0 1011 -0.2 45
2017-07-29 05:00:00 23.9 0 Calma 7 Noroeste 0 1010.9 -0.5 53
2017-07-29 04:00:00 25 2 Nordeste 9 Norte 0 1011.2 -0.4 51
2017-07-29 03:00:00 24.9 0 Calma 6 Nordeste 0 1011.2 -1.1 51
2017-07-29 02:00:00 26.1 5 Nordeste 10 Nordeste 0 1011.4 0 61
2017-07-29 01:00:00 26 2 Norte 8 Este 0 1011.6 0.7 64
2017-07-29 00:00:00 26.5 4 Oeste 6 Oeste 0 1012.3 2.1 66
2017-07-28 23:00:00 27.3 3 Noroeste 7 Noroeste 0 1011.4 1.3 61
2017-07-28 22:00:00 27.8 5 Sudeste 9 Sudeste 0 1010.9 1 56
2017-07-28 21:00:00 28.6 4 Sudoeste 11 Sur 0 1010.2 0.1 62
2017-07-28 20:00:00 29.5 6 Sur 13 Sudoeste 0 1010.1 -0.3 58
2017-07-28 19:00:00 29.4 8 Sur 17 Sur 0 1009.9 -0.8 62
2017-07-28 18:00:00 30 9 Sur 19 Sur 0 1010.1 -1.1 62
2017-07-28 17:00:00 30.1 9 Sur 19 Sur 0 1010.4 -1 60
2017-07-28 16:00:00 30.1 10 Sur 22 Sudeste 0 1010.7 -0.6 57
2017-07-28 15:00:00 30 10 Sur 23 Sudeste 0 1011.2 0.1 62
2017-07-28 14:00:00 30.4 9 Sudeste 20 Sudeste 0 1011.4 0.7 56
2017-07-28 13:00:00 30.3 10 Sudoeste 16 Sur 0 1011.3 0.7 46
2017-07-28 12:00:00 29.3 10 Sur 17 Sudeste 0 1011.1 0.7 49
2017-07-28 11:00:00 29 9 Sur 16 Sur 0 1010.7 0.2 58
2017-07-28 10:00:00 29.4 5 Sur 8 Sudeste 0 1010.6 0.3 52
2017-07-28 09:00:00 27.5 0 Calma 6 Nordeste 0 1010.4 0.4 52
2017-07-28 08:00:00 24.8 3 Nordeste 8 Nordeste 0 1010.5 0.7 63
2017-07-28 07:00:00 23.9 2 Nordeste 6 Nordeste 0 1010.3 0.6 64
2017-07-28 06:00:00 24 0 Calma 12 Norte 0 1010 -0.4 61
2017-07-28 05:00:00 23.7 3 Norte 8 Norte 0 1009.8 -0.5 62
2017-07-28 04:00:00 24 4 Noroeste 12 Norte 0 1009.7 -0.9 64
2017-07-28 03:00:00 23.8 4 Noroeste 9 Norte 0 1010.4 -0.3 56
2017-07-28 02:00:00 24.8 3 Norte 6 Norte 0 1010.3 1.1 59
2017-07-28 01:00:00 25.6 4 Norte 9 Norte 0 1010.6 0.9 54
2017-07-28 00:00:00 26.1 3 Norte 5 Norte 0 1010.7 1.3 56
2017-07-27 23:00:00 26.9 3 Oeste 6 Oeste 0 1009.2 -0.2 53
2017-07-27 22:00:00 27.5 2 Sudoeste 7 Oeste 0 1009.7 0.1 52
2017-07-27 21:00:00 28.8 3 Sudoeste 9 Sudeste 0 1009.4 -0.5 44
2017-07-27 20:00:00 29.5 4 Sudeste 12 Sudeste 0 1009.4 -1.2 47
2017-07-27 19:00:00 29.5 6 Sur 18 Sudeste 0 1009.6 -1.3 43
2017-07-27 18:00:00 30 8 Sur 17 Sudeste 0 1009.9 -1.5 45
2017-07-27 17:00:00 29 9 Sur 19 Sur 0 1010.6 -1.2 52
2017-07-27 16:00:00 29.9 10 Sur 19 Sudeste 0 1010.9 -1.2 45
2017-07-27 15:00:00 29.6 10 Sudeste 20 Sudeste 0 1011.4 -1.1 53
2017-07-27 14:00:00 29.2 12 Sur 19 Sur 0 1011.8 -0.6 53
2017-07-27 13:00:00 30.9 8 Sudeste 15 Sur 0 1012.1 -0.4 35
2017-07-27 12:00:00 29.7 6 Sur 12 Sur 0 1012.5 0.1 53
2017-07-27 11:00:00 29.2 5 Sur 12 Sur 0 1012.4 0.5 56
2017-07-27 10:00:00 27.5 3 Noroeste 8 Oeste 0 1012.5 0.8 62
2017-07-27 09:00:00 26.1 3 Noroeste 5 Noroeste 0 1012.4 0.9 68
2017-07-27 08:00:00 24.6 2 Nordeste 6 Nordeste 0 1011.9 0.7 68
2017-07-27 07:00:00 23.6 2 Norte 6 Nordeste 0 1011.7 0.3 73
2017-07-27 06:00:00 23.8 4 Norte 6 Norte 0 1011.5 -0.2 75
2017-07-27 05:00:00 24.2 2 Noroeste 7 Norte 0 1011.2 -0.4 74
2017-07-27 04:00:00 24.5 4 Norte 8 Norte 0 1011.4 -0.4 73
2017-07-27 03:00:00 25 3 Nordeste 7 Norte 0 1011.7 0 71
2017-07-27 02:00:00 25.1 3 Norte 6 Norte 0 1011.6 0.2 72
2017-07-27 01:00:00 25.5 3 Noroeste 7 Sudoeste 0 1011.8 0.9 72
2017-07-27 00:00:00 26.1 3 Sudoeste 8 Sudoeste 0 1011.7 1.8 69
2017-07-26 23:00:00 26.2 5 Sur 8 Sur 0 1011.4 1.8 66
2017-07-26 22:00:00 26.5 3 Sudoeste 10 Sudoeste 0 1010.9 1.3 65
2017-07-26 21:00:00 27.1 7 Sur 14 Sur 0 1009.9 0 63
2017-07-26 20:00:00 27.7 7 Sur 18 Sur 0 1009.6 -0.6 63
2017-07-26 19:00:00 28.2 6 Sur 20 Sur 0 1009.6 -0.9 61
2017-07-26 18:00:00 28.4 13 Sur 24 Sur 0 1009.9 -0.8 61
2017-07-26 17:00:00 28.8 14 Sur 26 Sur 0 1010.2 -1 57
2017-07-26 16:00:00 29.1 14 Sur 24 Sur 0 1010.5 -0.8 55
2017-07-26 15:00:00 29 12 Sur 22 Sur 0 1010.7 -0.7 59
2017-07-26 14:00:00 28.7 13 Sur 24 Sudoeste 0 1011.2 0.1 61
2017-07-26 13:00:00 28.7 12 Sudeste 23 Sur 0 1011.3 0.2 59
2017-07-26 12:00:00 28.5 12 Sudeste 22 Sur 0 1011.4 0.5 58
2017-07-26 11:00:00 28.7 10 Sur 17 Sur 0 1011.1 0.4 51
2017-07-26 10:00:00 28.6 5 Sur 10 Sur 0 1011.1 0.8 49
2017-07-26 09:00:00 27.4 3 Oeste 8 Noroeste 0 1010.9 0.7 57
2017-07-26 08:00:00 25.7 4 Norte 8 Norte 0 1010.7 0.6 63
2017-07-26 07:00:00 24.9 4 Norte 7 Noroeste 0 1010.3 0.1 67
2017-07-26 06:00:00 25 5 Nordeste 11 Nordeste 0 1010.2 -0.5 65
2017-07-26 05:00:00 25.1 5 Este 9 Este 0 1010.1 -0.5 67
2017-07-26 04:00:00 25.5 0 Calma 9 Este 0 1010.2 -0.4 70
2017-07-26 03:00:00 25.7 3 Nordeste 13 Sudeste 0 1010.7 0.3 68
2017-07-26 02:00:00 26 8 Este 15 Sudeste 0 1010.6 0.3 65
2017-07-26 01:00:00 26.2 9 Sudeste 16 Este 0 1010.6 1.1 67
2017-07-26 00:00:00 26.2 9 Sudeste 19 Sudeste 0 1010.4 1.2 69
2017-07-25 23:00:00 26.2 8 Sudeste 19 Este 0 1010.3 1.1 69
2017-07-25 22:00:00 26.3 12 Este 20 Sudeste 0 1009.5 1.4 70
2017-07-25 21:00:00 26.6 10 Sudeste 20 Sudeste 0 1009.2 0.3 69
2017-07-25 20:00:00 27.2 10 Sudeste 22 Este 0 1009.2 -0.1 62
2017-07-25 19:00:00 27.8 12 Sudeste 26 Este 0 1008.1 -1.7 61
2017-07-25 18:00:00 28.3 14 Sudeste 28 Sudeste 0 1008.9 -1.4 60
2017-07-25 17:00:00 29.2 18 Sudeste 33 Sudeste 0 1009.3 -1.3 57
2017-07-25 16:00:00 29.6 21 Sudeste 35 Este 0 1009.8 -1.1 57
2017-07-25 15:00:00 29.8 18 Sudeste 36 Sudeste 0 1010.3 -0.8 58
2017-07-25 14:00:00 29.4 21 Sudeste 33 Sudeste 0 1010.6 -0.5 57
2017-07-25 13:00:00 29.3 21 Sudeste 32 Sudeste 0 1010.9 -0.3 55
2017-07-25 12:00:00 29.7 19 Sudeste 34 Sudeste 0 1011.1 -0.1 50
2017-07-25 11:00:00 30 18 Este 32 Sudeste 0 1011.1 0.1 45
2017-07-25 10:00:00 29 12 Este 27 Sudeste 0 1011.2 0.6 47
2017-07-25 09:00:00 26.4 3 Norte 5 Norte 0 1011.2 0.6 59
2017-07-25 08:00:00 23.9 2 Norte 8 Norte 0 1011 0.2 67
2017-07-25 07:00:00 23.5 3 Norte 7 Norte 0 1010.6 -0.6 68
2017-07-25 06:00:00 23.7 4 Norte 8 Norte 0 1010.6 -0.8 68
2017-07-25 05:00:00 23.9 4 Norte 8 Este 0 1010.8 -1 71
2017-07-25 04:00:00 24.6 4 Este 9 Nordeste 0 1011.2 -0.9 73
2017-07-25 03:00:00 24.7 3 Nordeste 8 Nordeste 0 1011.4 -0.6 71
2017-07-25 02:00:00 25.1 4 Nordeste 8 Este 0 1011.8 0.1 69
2017-07-25 01:00:00 24.8 4 Norte 6 Noroeste 0 1012.1 0.7 69
2017-07-25 00:00:00 25.3 3 Noroeste 6 Sudeste 0 1012 1.3 67
2017-07-24 23:00:00 25.8 3 Sudeste 7 Sudeste 0 1011.7 1.5 67
2017-07-24 22:00:00 26.1 4 Sudeste 8 Sudoeste 0 1011.4 0.9 64
2017-07-24 21:00:00 27.3 5 Sur 12 Sur 0 1010.7 0.1 60
2017-07-24 20:00:00 28.1 5 Sur 16 Sudoeste 0 1010.2 -0.9 56
2017-07-24 19:00:00 28.5 7 Sur 19 Sudoeste 0 1010.5 -1.1 53
2017-07-24 18:00:00 28.5 10 Sur 18 Sur 0 1010.6 -1.3 57
2017-07-24 17:00:00 28.7 10 Sur 20 Sudeste 0 1011.1 -1 55
2017-07-24 16:00:00 28.5 10 Sur 20 Sur 0 1011.6 -1.2 57
2017-07-24 15:00:00 28.9 9 Sur 23 Sudeste 0 1011.9 -1.2 56
2017-07-24 14:00:00 28.1 13 Sur 24 Sur 0 1012.1 -0.9 59
2017-07-24 13:00:00 28.4 10 Sudeste 24 Sudeste 0 1012.8 0 58
2017-07-24 12:00:00 28 13 Sudeste 23 Sudeste 0 1013.1 0 61
2017-07-24 11:00:00 27.5 10 Sur 19 Sudeste 0 1013 0.6 60
2017-07-24 10:00:00 26.9 9 Sur 14 Sur 0 1012.8 0.8 66
2017-07-24 09:00:00 26.4 4 Este 10 Este 0 1013.1 1.1 70
2017-07-24 08:00:00 23.9 4 Nordeste 8 Nordeste 0 1012.4 0.4 68
2017-07-24 07:00:00 22.4 2 Este 7 Noroeste 0 1012 -0.1 64
2017-07-24 06:00:00 22.7 3 Nordeste 9 Nordeste 0 1012 -0.7 63
2017-07-24 05:00:00 23.1 4 Nordeste 10 Nordeste 0 1012 -1.1 62
2017-07-24 04:00:00 23.1 0 Calma 5 Norte 0 1012.1 -1.4 62
2017-07-24 03:00:00 23.6 3 Norte 9 Norte 0 1012.7 -1 66
2017-07-24 02:00:00 24.3 3 Norte 6 Norte 0 1013.1 -0.5 68
2017-07-24 01:00:00 25 2 Noroeste 6 Norte 0 1013.5 0.2 69
2017-07-24 00:00:00 25.7 3 Norte 7 Norte 0 1013.7 1.2 69
2017-07-23 23:00:00 25.8 3 Oeste 8 Oeste 0 1013.6 1.5 70
2017-07-23 22:00:00 26.4 4 Sudoeste 14 Sudoeste 0 1013.3 1.4 66
2017-07-23 21:00:00 27.3 5 Sudoeste 14 Sur 0 1012.5 0.7 59
2017-07-23 20:00:00 27.8 7 Sur 19 Sur 0 1012.1 -0.1 56
2017-07-23 19:00:00 28.2 10 Sur 20 Sudoeste 0 1011.9 -0.6 59
2017-07-23 18:00:00 28.7 9 Sur 22 Sudeste 0 1011.8 -1.7 54
2017-07-23 17:00:00 29.9 11 Sur 23 Sur 0 1012.2 -2 49
2017-07-23 16:00:00 29.3 12 Sur 24 Sur 0 1012.5 -1.7 53
2017-07-23 15:00:00 29.4 15 Sudeste 27 Sudeste 0 1013.5 -0.4 48
2017-07-23 14:00:00 29.2 18 Sudeste 30 Sudeste 0 1014.2 0.8 46
2017-07-23 13:00:00 28.7 22 Sudeste 35 Sudeste 0 1014.2 0.3 61
2017-07-23 12:00:00 29.1 10 Sudeste 26 Sudeste 0 1013.9 0.7 56
2017-07-23 11:00:00 29.1 4 Este 12 Sur 0 1013.4 0.3 47
2017-07-23 10:00:00 26.6 4 Oeste 9 Oeste 0 1013.9 1.7 67
2017-07-23 09:00:00 25.5 3 Sur 11 Nordeste 0 1013.2 2.1 70
2017-07-23 08:00:00 24.8 3 Oeste 8 Norte 0 1013.1 1.5 70
2017-07-23 07:00:00 24.7 4 Este 13 Oeste 0 1012.2 0.5 75
2017-07-23 06:00:00 24.6 4 Nordeste 10 Nordeste 0 1011.1 0.3 75
2017-07-23 05:00:00 24.9 3 Norte 10 Norte 0 1011.6 -0.8 73
2017-07-23 04:00:00 25.5 4 Sur 10 Sur 0 1011.7 0.6 71
2017-07-23 03:00:00 25 4 Nordeste 15 Este 0 1010.8 -2 74
2017-07-23 02:00:00 25.2 9 Este 27 Sudeste 0 1012.4 -0.2 74
2017-07-23 01:00:00 24.8 5 Nordeste 13 Norte 0 1011.1 -0.3 73
2017-07-23 00:00:00 24.8 3 Noroeste 9 Norte 0 1012.8 2 72
2017-07-22 23:00:00 25.3 4 Sudeste 10 Sur 0 1012.6 3.6 71
2017-07-22 22:00:00 25.4 4 Sudeste 13 Sudeste 0 1011.4 2 70
2017-07-22 21:00:00 26 10 Sudeste 17 Sudeste 0 1010.8 1.7 68
2017-07-22 20:00:00 26.7 9 Sudeste 19 Sudeste 0 1009 -0.3 64
2017-07-22 19:00:00 27.1 9 Sudeste 20 Sur 0 1009.4 -0.3 63
2017-07-22 18:00:00 27.2 11 Sur 22 Sudeste 0 1009.1 -0.6 63
2017-07-22 17:00:00 27.5 12 Sudeste 27 Sudeste 0 1009.3 -0.9 64
2017-07-22 16:00:00 27.6 13 Sur 26 Sur 0 1009.7 -1 64
2017-07-22 15:00:00 27.6 12 Sur 24 Sur 0 1009.7 -0.5 63
2017-07-22 14:00:00 27.9 12 Sur 20 Sudeste 0 1010.2 0.1 60
2017-07-22 13:00:00 27.7 13 Sudeste 26 Sudeste 0 1010.7 0.9 62
2017-07-22 12:00:00 28.5 14 Sudeste 22 Sudeste 0 1010.2 1.4 55
2017-07-22 11:00:00 27.8 13 Sudeste 26 Sudeste 0 1010.1 1 60
2017-07-22 10:00:00 28.1 9 Sudeste 16 Sudeste 0 1009.8 1.2 56
2017-07-22 09:00:00 26.7 5 Sudeste 12 Este 0 1008.8 0.6 64
2017-07-22 08:00:00 24.1 4 Norte 10 Nordeste 0 1009.1 1.2 66
2017-07-22 07:00:00 22.4 3 Nordeste 10 Norte 0 1008.6 0.8 66
2017-07-22 06:00:00 23.1 5 Norte 11 Nordeste 0 1008.2 0.4 66
2017-07-22 05:00:00 23.3 7 Norte 9 Norte 0 1007.9 -0.4 65
2017-07-22 04:00:00 23.7 4 Este 10 Nordeste 0 1007.8 -0.8 70
2017-07-22 03:00:00 23.7 3 Nordeste 8 Norte 0 1007.8 -1.2 65
2017-07-22 02:00:00 24.3 4 Nordeste 8 Nordeste 0 1008.3 -0.2 72
2017-07-22 01:00:00 24.6 5 Este 7 Nordeste 0 1008.6 1.2 71
2017-07-22 00:00:00 25 4 Nordeste 17 Sudeste 0 1009 1.5 71